sensor_id;sensor_type;location;lat;lon;timestamp;temperature;humidity
3923;DHT22;1976;51.694;6.256;2023-02-13T00:01:37;10.00;99.90
3923;DHT22;1976;51.694;6.256;2023-02-13T00:04:03;10.00;99.90
3923;DHT22;1976;51.694;6.256;2023-02-13T00:06:29;9.90;99.90
3923;DHT22;1976;51.694;6.256;2023-02-13T00:08:55;9.90;99.90
3923;DHT22;1976;51.694;6.256;2023-02-13T00:11:20;9.90;99.90
3923;DHT22;1976;51.694;6.256;2023-02-13T00:13:46;9.80;99.90
3923;DHT22;1976;51.694;6.256;2023-02-13T00:16:11;9.70;99.90
3923;DHT22;1976;51.694;6.256;2023-02-13T00:18:38;9.70;99.90
3923;DHT22;1976;51.694;6.256;2023-02-13T00:21:06;9.60;99.90
3923;DHT22;1976;51.694;6.256;2023-02-13T00:23:33;9.50;99.90
3923;DHT22;1976;51.694;6.256;2023-02-13T00:26:03;9.40;99.90
3923;DHT22;1976;51.694;6.256;2023-02-13T00:28:29;9.40;99.90
3923;DHT22;1976;51.694;6.256;2023-02-13T00:31:05;9.40;99.90
3923;DHT22;1976;51.694;6.256;2023-02-13T00:33:31;9.30;99.90
3923;DHT22;1976;51.694;6.256;2023-02-13T00:36:11;9.30;99.90
3923;DHT22;1976;51.694;6.256;2023-02-13T00:38:38;9.30;99.90
3923;DHT22;1976;51.694;6.256;2023-02-13T00:41:04;9.30;99.90
3923;DHT22;1976;51.694;6.256;2023-02-13T00:43:30;9.20;99.90
3923;DHT22;1976;51.694;6.256;2023-02-13T00:45:56;9.20;99.90
3923;DHT22;1976;51.694;6.256;2023-02-13T00:48:26;9.30;99.90
3923;DHT22;1976;51.694;6.256;2023-02-13T00:50:51;9.20;99.90
3923;DHT22;1976;51.694;6.256;2023-02-13T00:53:22;9.20;99.90
3923;DHT22;1976;51.694;6.256;2023-02-13T00:55:48;9.30;99.90
3923;DHT22;1976;51.694;6.256;2023-02-13T00:58:14;9.30;99.90
3923;DHT22;1976;51.694;6.256;2023-02-13T01:00:40;9.20;99.90
3923;DHT22;1976;51.694;6.256;2023-02-13T01:03:07;9.20;99.90
3923;DHT22;1976;51.694;6.256;2023-02-13T01:05:32;9.20;99.90
3923;DHT22;1976;51.694;6.256;2023-02-13T01:07:58;9.30;99.90
3923;DHT22;1976;51.694;6.256;2023-02-13T01:10:24;9.30;99.90
3923;DHT22;1976;51.694;6.256;2023-02-13T01:12:50;9.30;99.90
3923;DHT22;1976;51.694;6.256;2023-02-13T01:15:16;9.30;99.90
3923;DHT22;1976;51.694;6.256;2023-02-13T01:17:42;9.30;99.90
3923;DHT22;1976;51.694;6.256;2023-02-13T01:20:09;9.30;99.90
3923;DHT22;1976;51.694;6.256;2023-02-13T01:22:36;9.30;99.90
3923;DHT22;1976;51.694;6.256;2023-02-13T01:25:01;9.30;99.90
3923;DHT22;1976;51.694;6.256;2023-02-13T01:27:27;9.30;99.90
3923;DHT22;1976;51.694;6.256;2023-02-13T01:29:53;9.30;99.90
3923;DHT22;1976;51.694;6.256;2023-02-13T01:32:19;9.30;99.90
3923;DHT22;1976;51.694;6.256;2023-02-13T01:34:45;9.30;99.90
3923;DHT22;1976;51.694;6.256;2023-02-13T01:37:11;9.30;99.90
3923;DHT22;1976;51.694;6.256;2023-02-13T01:39:37;9.20;99.90
3923;DHT22;1976;51.694;6.256;2023-02-13T01:42:03;9.20;99.90
3923;DHT22;1976;51.694;6.256;2023-02-13T01:44:52;9.20;99.90
3923;DHT22;1976;51.694;6.256;2023-02-13T01:47:35;9.20;99.90
3923;DHT22;1976;51.694;6.256;2023-02-13T01:50:10;9.30;99.90
3923;DHT22;1976;51.694;6.256;2023-02-13T01:52:40;9.20;99.90
3923;DHT22;1976;51.694;6.256;2023-02-13T01:55:08;9.30;99.90
3923;DHT22;1976;51.694;6.256;2023-02-13T01:57:36;9.30;99.90
3923;DHT22;1976;51.694;6.256;2023-02-13T02:00:09;9.30;99.90
3923;DHT22;1976;51.694;6.256;2023-02-13T02:02:37;9.30;99.90
3923;DHT22;1976;51.694;6.256;2023-02-13T02:05:04;9.30;99.90
3923;DHT22;1976;51.694;6.256;2023-02-13T02:07:31;9.20;99.90
3923;DHT22;1976;51.694;6.256;2023-02-13T02:10:04;9.30;99.90
3923;DHT22;1976;51.694;6.256;2023-02-13T02:12:48;9.20;99.90
3923;DHT22;1976;51.694;6.256;2023-02-13T02:15:17;9.20;99.90
3923;DHT22;1976;51.694;6.256;2023-02-13T02:17:42;9.20;99.90
3923;DHT22;1976;51.694;6.256;2023-02-13T02:30:52;9.30;99.90
3923;DHT22;1976;51.694;6.256;2023-02-13T02:41:57;9.30;99.90
3923;DHT22;1976;51.694;6.256;2023-02-13T02:44:30;9.30;99.90
3923;DHT22;1976;51.694;6.256;2023-02-13T02:56:04;9.40;99.90
3923;DHT22;1976;51.694;6.256;2023-02-13T02:58:39;9.50;99.90
3923;DHT22;1976;51.694;6.256;2023-02-13T03:01:28;9.50;99.90
3923;DHT22;1976;51.694;6.256;2023-02-13T03:04:22;9.40;99.90
3923;DHT22;1976;51.694;6.256;2023-02-13T03:07:08;9.50;99.90
3923;DHT22;1976;51.694;6.256;2023-02-13T03:09:39;9.50;99.90
3923;DHT22;1976;51.694;6.256;2023-02-13T03:12:29;9.60;99.90
3923;DHT22;1976;51.694;6.256;2023-02-13T03:15:16;9.50;99.90
3923;DHT22;1976;51.694;6.256;2023-02-13T03:17:42;9.70;99.90
3923;DHT22;1976;51.694;6.256;2023-02-13T03:20:50;9.60;99.90
3923;DHT22;1976;51.694;6.256;2023-02-13T03:24:24;9.70;99.90
3923;DHT22;1976;51.694;6.256;2023-02-13T03:26:58;9.70;99.90
3923;DHT22;1976;51.694;6.256;2023-02-13T03:29:43;9.70;99.90
3923;DHT22;1976;51.694;6.256;2023-02-13T03:32:44;9.70;99.90
3923;DHT22;1976;51.694;6.256;2023-02-13T03:38:31;9.60;99.90
3923;DHT22;1976;51.694;6.256;2023-02-13T03:41:04;9.60;99.90
3923;DHT22;1976;51.694;6.256;2023-02-13T03:46:40;9.70;99.90
3923;DHT22;1976;51.694;6.256;2023-02-13T03:49:15;9.70;99.90
3923;DHT22;1976;51.694;6.256;2023-02-13T03:52:08;9.70;99.90
3923;DHT22;1976;51.694;6.256;2023-02-13T03:54:45;9.70;99.90
3923;DHT22;1976;51.694;6.256;2023-02-13T03:57:32;9.60;99.90
3923;DHT22;1976;51.694;6.256;2023-02-13T04:00:19;9.60;99.90
3923;DHT22;1976;51.694;6.256;2023-02-13T04:03:12;9.60;99.90
3923;DHT22;1976;51.694;6.256;2023-02-13T04:05:43;9.60;99.90
3923;DHT22;1976;51.694;6.256;2023-02-13T04:08:09;9.60;99.90
3923;DHT22;1976;51.694;6.256;2023-02-13T04:10:42;9.70;99.90
3923;DHT22;1976;51.694;6.256;2023-02-13T04:13:34;9.60;99.90
3923;DHT22;1976;51.694;6.256;2023-02-13T04:16:10;9.50;99.90
3923;DHT22;1976;51.694;6.256;2023-02-13T04:18:38;9.50;99.90
3923;DHT22;1976;51.694;6.256;2023-02-13T04:21:06;9.50;99.90
3923;DHT22;1976;51.694;6.256;2023-02-13T04:23:32;9.50;99.90
3923;DHT22;1976;51.694;6.256;2023-02-13T04:26:01;9.40;99.90
3923;DHT22;1976;51.694;6.256;2023-02-13T04:28:28;9.40;99.90
3923;DHT22;1976;51.694;6.256;2023-02-13T04:30:54;9.40;99.90
3923;DHT22;1976;51.694;6.256;2023-02-13T04:33:20;9.40;99.90
3923;DHT22;1976;51.694;6.256;2023-02-13T04:35:45;9.40;99.90
3923;DHT22;1976;51.694;6.256;2023-02-13T04:38:11;9.40;99.90
3923;DHT22;1976;51.694;6.256;2023-02-13T04:40:37;9.40;99.90
3923;DHT22;1976;51.694;6.256;2023-02-13T04:43:02;9.30;99.90
3923;DHT22;1976;51.694;6.256;2023-02-13T04:45:28;9.30;99.90
3923;DHT22;1976;51.694;6.256;2023-02-13T04:47:54;9.30;99.90
3923;DHT22;1976;51.694;6.256;2023-02-13T04:50:21;9.40;99.90
3923;DHT22;1976;51.694;6.256;2023-02-13T04:52:49;9.40;99.90
3923;DHT22;1976;51.694;6.256;2023-02-13T04:55:14;9.40;99.90
3923;DHT22;1976;51.694;6.256;2023-02-13T04:57:40;9.40;99.90
3923;DHT22;1976;51.694;6.256;2023-02-13T05:00:06;9.50;99.90
3923;DHT22;1976;51.694;6.256;2023-02-13T05:02:32;9.50;99.90
3923;DHT22;1976;51.694;6.256;2023-02-13T05:04:57;9.40;99.90
3923;DHT22;1976;51.694;6.256;2023-02-13T05:07:23;9.40;99.90
3923;DHT22;1976;51.694;6.256;2023-02-13T05:09:49;9.40;99.90
3923;DHT22;1976;51.694;6.256;2023-02-13T05:12:14;9.50;99.90
3923;DHT22;1976;51.694;6.256;2023-02-13T05:14:40;9.30;99.90
3923;DHT22;1976;51.694;6.256;2023-02-13T05:17:06;9.40;99.90
3923;DHT22;1976;51.694;6.256;2023-02-13T05:19:31;9.40;99.90
3923;DHT22;1976;51.694;6.256;2023-02-13T05:21:57;9.40;99.90
3923;DHT22;1976;51.694;6.256;2023-02-13T05:24:41;9.30;99.90
3923;DHT22;1976;51.694;6.256;2023-02-13T05:27:07;9.30;99.90
3923;DHT22;1976;51.694;6.256;2023-02-13T05:29:32;9.30;99.90
3923;DHT22;1976;51.694;6.256;2023-02-13T05:31:58;9.30;99.90
3923;DHT22;1976;51.694;6.256;2023-02-13T05:34:26;9.20;99.90
3923;DHT22;1976;51.694;6.256;2023-02-13T05:36:52;9.20;99.90
3923;DHT22;1976;51.694;6.256;2023-02-13T05:39:18;9.20;99.90
3923;DHT22;1976;51.694;6.256;2023-02-13T05:41:44;9.10;99.90
3923;DHT22;1976;51.694;6.256;2023-02-13T05:44:11;9.20;99.90
3923;DHT22;1976;51.694;6.256;2023-02-13T05:46:39;9.10;99.90
3923;DHT22;1976;51.694;6.256;2023-02-13T05:49:06;9.10;99.90
3923;DHT22;1976;51.694;6.256;2023-02-13T05:51:32;9.00;99.90
3923;DHT22;1976;51.694;6.256;2023-02-13T05:53:57;8.90;99.90
3923;DHT22;1976;51.694;6.256;2023-02-13T05:56:23;8.90;99.90
3923;DHT22;1976;51.694;6.256;2023-02-13T05:58:53;8.80;99.90
3923;DHT22;1976;51.694;6.256;2023-02-13T06:01:20;8.80;99.90
3923;DHT22;1976;51.694;6.256;2023-02-13T06:03:46;8.70;99.90
3923;DHT22;1976;51.694;6.256;2023-02-13T06:06:12;8.70;99.90
3923;DHT22;1976;51.694;6.256;2023-02-13T06:08:38;8.60;99.90
3923;DHT22;1976;51.694;6.256;2023-02-13T06:11:03;8.50;99.90
3923;DHT22;1976;51.694;6.256;2023-02-13T06:13:29;8.40;99.90
3923;DHT22;1976;51.694;6.256;2023-02-13T06:15:55;8.30;99.90
3923;DHT22;1976;51.694;6.256;2023-02-13T06:18:21;8.20;99.90
3923;DHT22;1976;51.694;6.256;2023-02-13T06:20:47;8.10;99.90
3923;DHT22;1976;51.694;6.256;2023-02-13T06:23:13;8.00;99.90
3923;DHT22;1976;51.694;6.256;2023-02-13T06:25:39;7.90;99.90
3923;DHT22;1976;51.694;6.256;2023-02-13T06:28:04;7.80;99.90
3923;DHT22;1976;51.694;6.256;2023-02-13T06:30:30;7.70;99.90
3923;DHT22;1976;51.694;6.256;2023-02-13T06:32:56;7.60;99.90
3923;DHT22;1976;51.694;6.256;2023-02-13T06:35:22;7.50;99.90
3923;DHT22;1976;51.694;6.256;2023-02-13T06:37:48;7.50;99.90
3923;DHT22;1976;51.694;6.256;2023-02-13T06:40:15;7.40;99.90
3923;DHT22;1976;51.694;6.256;2023-02-13T06:42:42;7.40;99.90
3923;DHT22;1976;51.694;6.256;2023-02-13T06:45:08;7.30;99.90
3923;DHT22;1976;51.694;6.256;2023-02-13T06:47:34;7.20;99.90
3923;DHT22;1976;51.694;6.256;2023-02-13T06:50:00;7.10;99.90
3923;DHT22;1976;51.694;6.256;2023-02-13T06:52:26;7.10;99.90
3923;DHT22;1976;51.694;6.256;2023-02-13T06:54:51;7.00;99.90
3923;DHT22;1976;51.694;6.256;2023-02-13T06:57:17;7.00;99.90
3923;DHT22;1976;51.694;6.256;2023-02-13T06:59:43;7.00;99.90
3923;DHT22;1976;51.694;6.256;2023-02-13T07:02:12;6.90;99.90
3923;DHT22;1976;51.694;6.256;2023-02-13T07:04:38;6.90;99.90
3923;DHT22;1976;51.694;6.256;2023-02-13T07:07:04;7.00;99.90
3923;DHT22;1976;51.694;6.256;2023-02-13T07:12:06;7.00;99.90
3923;DHT22;1976;51.694;6.256;2023-02-13T07:14:32;6.90;99.90
3923;DHT22;1976;51.694;6.256;2023-02-13T07:16:57;7.00;99.90
3923;DHT22;1976;51.694;6.256;2023-02-13T07:19:23;6.90;99.90
3923;DHT22;1976;51.694;6.256;2023-02-13T07:21:49;6.90;99.90
3923;DHT22;1976;51.694;6.256;2023-02-13T07:24:15;6.90;99.90
3923;DHT22;1976;51.694;6.256;2023-02-13T07:26:40;6.90;99.90
3923;DHT22;1976;51.694;6.256;2023-02-13T07:29:06;6.90;99.90
3923;DHT22;1976;51.694;6.256;2023-02-13T07:31:33;6.80;99.90
3923;DHT22;1976;51.694;6.256;2023-02-13T07:33:59;6.80;99.90
3923;DHT22;1976;51.694;6.256;2023-02-13T07:36:25;6.90;99.90
3923;DHT22;1976;51.694;6.256;2023-02-13T07:38:51;6.90;99.90
3923;DHT22;1976;51.694;6.256;2023-02-13T07:41:16;6.90;99.90
3923;DHT22;1976;51.694;6.256;2023-02-13T07:43:42;6.90;99.90
3923;DHT22;1976;51.694;6.256;2023-02-13T07:46:08;7.00;99.90
3923;DHT22;1976;51.694;6.256;2023-02-13T07:48:34;7.00;99.90
3923;DHT22;1976;51.694;6.256;2023-02-13T07:51:01;7.00;99.90
3923;DHT22;1976;51.694;6.256;2023-02-13T07:53:27;7.10;99.90
3923;DHT22;1976;51.694;6.256;2023-02-13T07:55:53;7.20;99.90
3923;DHT22;1976;51.694;6.256;2023-02-13T07:58:18;7.20;99.90
3923;DHT22;1976;51.694;6.256;2023-02-13T08:00:44;7.30;99.90
3923;DHT22;1976;51.694;6.256;2023-02-13T08:03:10;7.40;99.90
3923;DHT22;1976;51.694;6.256;2023-02-13T08:05:36;7.60;99.90
3923;DHT22;1976;51.694;6.256;2023-02-13T08:08:02;7.70;99.90
3923;DHT22;1976;51.694;6.256;2023-02-13T08:10:28;7.90;99.90
3923;DHT22;1976;51.694;6.256;2023-02-13T08:13:13;8.30;99.90
3923;DHT22;1976;51.694;6.256;2023-02-13T08:15:40;8.90;99.90
3923;DHT22;1976;51.694;6.256;2023-02-13T08:18:05;9.40;99.90
3923;DHT22;1976;51.694;6.256;2023-02-13T08:20:31;9.90;99.90
3923;DHT22;1976;51.694;6.256;2023-02-13T08:23:04;10.40;99.90
3923;DHT22;1976;51.694;6.256;2023-02-13T08:25:30;10.90;99.90
3923;DHT22;1976;51.694;6.256;2023-02-13T08:27:56;11.40;99.90
3923;DHT22;1976;51.694;6.256;2023-02-13T08:30:22;11.80;99.90
3923;DHT22;1976;51.694;6.256;2023-02-13T08:32:47;12.10;99.90
3923;DHT22;1976;51.694;6.256;2023-02-13T08:35:13;12.60;99.90
3923;DHT22;1976;51.694;6.256;2023-02-13T08:37:39;13.00;99.90
3923;DHT22;1976;51.694;6.256;2023-02-13T08:40:05;13.40;99.90
3923;DHT22;1976;51.694;6.256;2023-02-13T08:42:31;13.80;99.90
3923;DHT22;1976;51.694;6.256;2023-02-13T08:44:56;14.20;99.90
3923;DHT22;1976;51.694;6.256;2023-02-13T08:47:22;14.60;99.90
3923;DHT22;1976;51.694;6.256;2023-02-13T08:49:47;15.00;99.90
3923;DHT22;1976;51.694;6.256;2023-02-13T08:52:13;15.50;99.90
3923;DHT22;1976;51.694;6.256;2023-02-13T08:54:39;16.00;99.90
3923;DHT22;1976;51.694;6.256;2023-02-13T08:57:04;16.40;99.10
3923;DHT22;1976;51.694;6.256;2023-02-13T08:59:30;16.90;98.40
3923;DHT22;1976;51.694;6.256;2023-02-13T09:01:56;17.40;97.50
3923;DHT22;1976;51.694;6.256;2023-02-13T09:04:22;17.80;96.70
3923;DHT22;1976;51.694;6.256;2023-02-13T09:06:48;18.20;96.00
3923;DHT22;1976;51.694;6.256;2023-02-13T09:09:13;18.70;95.50
3923;DHT22;1976;51.694;6.256;2023-02-13T09:11:40;19.30;95.20
3923;DHT22;1976;51.694;6.256;2023-02-13T09:14:06;20.00;94.70
3923;DHT22;1976;51.694;6.256;2023-02-13T09:16:31;20.60;94.00
3923;DHT22;1976;51.694;6.256;2023-02-13T09:18:57;21.10;92.30
3923;DHT22;1976;51.694;6.256;2023-02-13T09:21:22;21.10;91.90
3923;DHT22;1976;51.694;6.256;2023-02-13T09:23:48;20.90;90.30
3923;DHT22;1976;51.694;6.256;2023-02-13T09:26:18;20.90;92.20
3923;DHT22;1976;51.694;6.256;2023-02-13T09:28:44;21.00;90.60
3923;DHT22;1976;51.694;6.256;2023-02-13T09:31:14;20.80;90.40
3923;DHT22;1976;51.694;6.256;2023-02-13T09:33:41;21.00;89.80
3923;DHT22;1976;51.694;6.256;2023-02-13T09:36:19;21.30;89.10
3923;DHT22;1976;51.694;6.256;2023-02-13T09:38:46;21.60;88.90
3923;DHT22;1976;51.694;6.256;2023-02-13T09:41:25;21.90;86.90
3923;DHT22;1976;51.694;6.256;2023-02-13T09:44:25;21.80;86.70
3923;DHT22;1976;51.694;6.256;2023-02-13T09:49:51;21.50;86.20
3923;DHT22;1976;51.694;6.256;2023-02-13T09:52:18;21.70;86.20
3923;DHT22;1976;51.694;6.256;2023-02-13T09:54:44;22.30;85.30
3923;DHT22;1976;51.694;6.256;2023-02-13T09:57:39;22.70;83.80
3923;DHT22;1976;51.694;6.256;2023-02-13T10:00:21;23.10;83.30
3923;DHT22;1976;51.694;6.256;2023-02-13T10:08:11;22.80;82.30
3923;DHT22;1976;51.694;6.256;2023-02-13T10:16:24;23.00;80.30
3923;DHT22;1976;51.694;6.256;2023-02-13T10:21:28;24.30;79.80
3923;DHT22;1976;51.694;6.256;2023-02-13T10:24:00;24.50;78.10
3923;DHT22;1976;51.694;6.256;2023-02-13T10:26:35;24.70;78.30
3923;DHT22;1976;51.694;6.256;2023-02-13T10:29:34;25.30;78.70
3923;DHT22;1976;51.694;6.256;2023-02-13T10:32:28;25.20;75.60
3923;DHT22;1976;51.694;6.256;2023-02-13T10:34:58;24.70;75.70
3923;DHT22;1976;51.694;6.256;2023-02-13T10:37:27;24.80;76.50
3923;DHT22;1976;51.694;6.256;2023-02-13T10:39:53;24.70;76.90
3923;DHT22;1976;51.694;6.256;2023-02-13T10:53:12;27.50;71.20
3923;DHT22;1976;51.694;6.256;2023-02-13T10:55:59;27.80;68.80
3923;DHT22;1976;51.694;6.256;2023-02-13T11:01:24;27.80;67.80
3923;DHT22;1976;51.694;6.256;2023-02-13T11:04:04;28.40;66.60
3923;DHT22;1976;51.694;6.256;2023-02-13T11:06:36;28.80;66.00
3923;DHT22;1976;51.694;6.256;2023-02-13T11:09:04;29.10;65.00
3923;DHT22;1976;51.694;6.256;2023-02-13T11:11:36;29.50;63.10
3923;DHT22;1976;51.694;6.256;2023-02-13T11:19:20;28.60;62.30
3923;DHT22;1976;51.694;6.256;2023-02-13T11:21:52;28.90;62.60
3923;DHT22;1976;51.694;6.256;2023-02-13T11:24:22;29.40;60.40
3923;DHT22;1976;51.694;6.256;2023-02-13T11:27:04;29.70;60.10
3923;DHT22;1976;51.694;6.256;2023-02-13T11:29:35;29.90;59.20
3923;DHT22;1976;51.694;6.256;2023-02-13T11:32:04;30.20;59.10
3923;DHT22;1976;51.694;6.256;2023-02-13T11:34:32;30.30;58.10
3923;DHT22;1976;51.694;6.256;2023-02-13T11:37:17;30.20;57.60
3923;DHT22;1976;51.694;6.256;2023-02-13T11:39:45;29.90;57.10
3923;DHT22;1976;51.694;6.256;2023-02-13T11:42:15;30.00;56.90
3923;DHT22;1976;51.694;6.256;2023-02-13T11:44:43;30.30;57.00
3923;DHT22;1976;51.694;6.256;2023-02-13T11:47:12;30.50;56.30
3923;DHT22;1976;51.694;6.256;2023-02-13T11:49:45;30.70;55.40
3923;DHT22;1976;51.694;6.256;2023-02-13T11:52:35;30.50;56.10
3923;DHT22;1976;51.694;6.256;2023-02-13T11:55:23;30.20;55.20
3923;DHT22;1976;51.694;6.256;2023-02-13T11:58:20;30.30;55.60
3923;DHT22;1976;51.694;6.256;2023-02-13T12:00:47;30.50;55.10
3923;DHT22;1976;51.694;6.256;2023-02-13T12:06:16;29.80;54.90
3923;DHT22;1976;51.694;6.256;2023-02-13T12:08:47;29.60;55.30
3923;DHT22;1976;51.694;6.256;2023-02-13T12:11:23;29.40;54.90
3923;DHT22;1976;51.694;6.256;2023-02-13T12:13:54;29.30;55.20
3923;DHT22;1976;51.694;6.256;2023-02-13T12:19:00;29.70;56.00
3923;DHT22;1976;51.694;6.256;2023-02-13T12:23:57;30.50;54.30
3923;DHT22;1976;51.694;6.256;2023-02-13T12:29:27;31.40;52.70
3923;DHT22;1976;51.694;6.256;2023-02-13T12:34:43;31.60;52.80
3923;DHT22;1976;51.694;6.256;2023-02-13T12:54:14;32.20;49.40
3923;DHT22;1976;51.694;6.256;2023-02-13T12:56:57;32.20;49.90
3923;DHT22;1976;51.694;6.256;2023-02-13T12:59:47;33.00;50.60
3923;DHT22;1976;51.694;6.256;2023-02-13T13:05:24;34.30;47.30
3923;DHT22;1976;51.694;6.256;2023-02-13T13:13:13;33.00;46.20
3923;DHT22;1976;51.694;6.256;2023-02-13T13:15:52;32.50;47.20
3923;DHT22;1976;51.694;6.256;2023-02-13T13:18:34;32.20;48.20
3923;DHT22;1976;51.694;6.256;2023-02-13T13:21:12;31.90;48.00
3923;DHT22;1976;51.694;6.256;2023-02-13T13:29:04;32.70;49.10
3923;DHT22;1976;51.694;6.256;2023-02-13T13:31:34;33.20;48.40
3923;DHT22;1976;51.694;6.256;2023-02-13T13:34:12;33.40;47.20
3923;DHT22;1976;51.694;6.256;2023-02-13T13:50:27;34.70;45.70
3923;DHT22;1976;51.694;6.256;2023-02-13T13:53:11;34.70;45.90
3923;DHT22;1976;51.694;6.256;2023-02-13T13:58:38;34.20;45.00
3923;DHT22;1976;51.694;6.256;2023-02-13T14:01:20;33.90;45.50
3923;DHT22;1976;51.694;6.256;2023-02-13T14:03:51;33.50;46.00
3923;DHT22;1976;51.694;6.256;2023-02-13T14:06:26;33.10;45.90
3923;DHT22;1976;51.694;6.256;2023-02-13T14:08:55;32.90;46.30
3923;DHT22;1976;51.694;6.256;2023-02-13T14:13:50;32.80;46.60
3923;DHT22;1976;51.694;6.256;2023-02-13T14:16:41;32.80;45.30
3923;DHT22;1976;51.694;6.256;2023-02-13T14:19:38;32.30;46.20
3923;DHT22;1976;51.694;6.256;2023-02-13T14:22:26;32.00;46.60
3923;DHT22;1976;51.694;6.256;2023-02-13T14:25:06;31.80;47.00
3923;DHT22;1976;51.694;6.256;2023-02-13T14:27:34;31.30;47.10
3923;DHT22;1976;51.694;6.256;2023-02-13T14:30:29;31.00;47.80
3923;DHT22;1976;51.694;6.256;2023-02-13T14:32:57;30.70;47.90
3923;DHT22;1976;51.694;6.256;2023-02-13T14:35:36;30.50;47.90
3923;DHT22;1976;51.694;6.256;2023-02-13T14:38:05;30.10;48.20
3923;DHT22;1976;51.694;6.256;2023-02-13T14:40:49;29.50;47.90
3923;DHT22;1976;51.694;6.256;2023-02-13T14:46:02;28.60;50.40
3923;DHT22;1976;51.694;6.256;2023-02-13T14:51:22;28.60;50.60
3923;DHT22;1976;51.694;6.256;2023-02-13T14:53:57;28.50;50.00
3923;DHT22;1976;51.694;6.256;2023-02-13T14:56:24;28.10;50.60
3923;DHT22;1976;51.694;6.256;2023-02-13T14:59:14;28.20;51.00
3923;DHT22;1976;51.694;6.256;2023-02-13T15:01:47;28.40;51.50
3923;DHT22;1976;51.694;6.256;2023-02-13T15:04:21;28.70;51.30
3923;DHT22;1976;51.694;6.256;2023-02-13T15:06:52;28.70;50.30
3923;DHT22;1976;51.694;6.256;2023-02-13T15:09:35;28.80;50.90
3923;DHT22;1976;51.694;6.256;2023-02-13T15:12:03;28.80;50.90
3923;DHT22;1976;51.694;6.256;2023-02-13T15:14:34;28.90;50.90
3923;DHT22;1976;51.694;6.256;2023-02-13T15:17:14;29.10;50.90
3923;DHT22;1976;51.694;6.256;2023-02-13T15:19:46;29.10;50.90
3923;DHT22;1976;51.694;6.256;2023-02-13T15:22:21;29.10;51.00
3923;DHT22;1976;51.694;6.256;2023-02-13T15:24:49;29.00;51.20
3923;DHT22;1976;51.694;6.256;2023-02-13T15:27:26;28.90;51.50
3923;DHT22;1976;51.694;6.256;2023-02-13T15:29:57;28.80;51.60
3923;DHT22;1976;51.694;6.256;2023-02-13T15:32:32;28.70;51.80
3923;DHT22;1976;51.694;6.256;2023-02-13T15:34:58;28.50;52.10
3923;DHT22;1976;51.694;6.256;2023-02-13T15:37:27;28.40;52.20
3923;DHT22;1976;51.694;6.256;2023-02-13T15:39:53;28.30;52.10
3923;DHT22;1976;51.694;6.256;2023-02-13T15:42:19;28.10;52.20
3923;DHT22;1976;51.694;6.256;2023-02-13T15:44:48;27.80;52.60
3923;DHT22;1976;51.694;6.256;2023-02-13T15:47:25;27.60;53.20
3923;DHT22;1976;51.694;6.256;2023-02-13T15:49:52;27.40;53.50
3923;DHT22;1976;51.694;6.256;2023-02-13T15:52:30;27.10;53.90
3923;DHT22;1976;51.694;6.256;2023-02-13T15:54:57;26.90;54.20
3923;DHT22;1976;51.694;6.256;2023-02-13T15:57:24;26.50;54.70
3923;DHT22;1976;51.694;6.256;2023-02-13T15:59:53;26.10;55.10
3923;DHT22;1976;51.694;6.256;2023-02-13T16:02:36;25.70;55.40
3923;DHT22;1976;51.694;6.256;2023-02-13T16:05:04;25.20;56.00
3923;DHT22;1976;51.694;6.256;2023-02-13T16:07:49;24.80;56.60
3923;DHT22;1976;51.694;6.256;2023-02-13T16:10:30;24.30;57.20
3923;DHT22;1976;51.694;6.256;2023-02-13T16:13:05;23.90;57.50
3923;DHT22;1976;51.694;6.256;2023-02-13T16:15:33;23.40;57.90
3923;DHT22;1976;51.694;6.256;2023-02-13T16:18:00;23.10;58.40
3923;DHT22;1976;51.694;6.256;2023-02-13T16:20:29;22.70;58.80
3923;DHT22;1976;51.694;6.256;2023-02-13T16:23:01;22.50;59.30
3923;DHT22;1976;51.694;6.256;2023-02-13T16:25:34;22.20;59.80
3923;DHT22;1976;51.694;6.256;2023-02-13T16:28:19;22.00;60.10
3923;DHT22;1976;51.694;6.256;2023-02-13T16:30:51;21.60;60.60
3923;DHT22;1976;51.694;6.256;2023-02-13T16:33:26;21.20;61.40
3923;DHT22;1976;51.694;6.256;2023-02-13T16:35:55;20.80;61.70
3923;DHT22;1976;51.694;6.256;2023-02-13T16:38:33;20.40;62.50
3923;DHT22;1976;51.694;6.256;2023-02-13T16:43:56;19.60;64.00
3923;DHT22;1976;51.694;6.256;2023-02-13T16:46:36;19.10;65.00
3923;DHT22;1976;51.694;6.256;2023-02-13T16:51:38;18.20;67.20
3923;DHT22;1976;51.694;6.256;2023-02-13T16:59:23;17.10;69.50
3923;DHT22;1976;51.694;6.256;2023-02-13T17:04:39;16.30;71.70
3923;DHT22;1976;51.694;6.256;2023-02-13T17:07:12;16.00;73.20
3923;DHT22;1976;51.694;6.256;2023-02-13T17:09:38;15.70;75.00
3923;DHT22;1976;51.694;6.256;2023-02-13T17:12:08;15.50;76.70
3923;DHT22;1976;51.694;6.256;2023-02-13T17:14:35;15.30;78.20
3923;DHT22;1976;51.694;6.256;2023-02-13T17:17:01;15.10;79.50
3923;DHT22;1976;51.694;6.256;2023-02-13T17:19:27;15.00;80.60
3923;DHT22;1976;51.694;6.256;2023-02-13T17:21:53;14.90;81.30
3923;DHT22;1976;51.694;6.256;2023-02-13T17:24:20;14.80;82.20
3923;DHT22;1976;51.694;6.256;2023-02-13T17:26:45;14.70;83.00
3923;DHT22;1976;51.694;6.256;2023-02-13T17:29:11;14.70;83.70
3923;DHT22;1976;51.694;6.256;2023-02-13T17:31:36;14.60;83.40
3923;DHT22;1976;51.694;6.256;2023-02-13T17:34:03;14.60;83.30
3923;DHT22;1976;51.694;6.256;2023-02-13T17:36:29;14.50;83.80
3923;DHT22;1976;51.694;6.256;2023-02-13T17:38:55;14.50;83.80
3923;DHT22;1976;51.694;6.256;2023-02-13T17:41:20;14.50;83.80
3923;DHT22;1976;51.694;6.256;2023-02-13T17:43:46;14.50;83.50
3923;DHT22;1976;51.694;6.256;2023-02-13T17:46:12;14.40;82.70
3923;DHT22;1976;51.694;6.256;2023-02-13T17:48:39;14.20;83.20
3923;DHT22;1976;51.694;6.256;2023-02-13T17:51:05;14.00;84.80
3923;DHT22;1976;51.694;6.256;2023-02-13T17:53:30;13.80;86.50
3923;DHT22;1976;51.694;6.256;2023-02-13T17:55:57;13.80;89.30
3923;DHT22;1976;51.694;6.256;2023-02-13T17:58:23;13.70;90.40
3923;DHT22;1976;51.694;6.256;2023-02-13T18:00:48;13.70;90.60
3923;DHT22;1976;51.694;6.256;2023-02-13T18:03:14;13.60;90.90
3923;DHT22;1976;51.694;6.256;2023-02-13T18:05:40;13.50;91.30
3923;DHT22;1976;51.694;6.256;2023-02-13T18:08:07;13.50;91.30
3923;DHT22;1976;51.694;6.256;2023-02-13T18:10:35;13.50;91.20
3923;DHT22;1976;51.694;6.256;2023-02-13T18:13:02;13.50;91.40
3923;DHT22;1976;51.694;6.256;2023-02-13T18:15:38;13.50;91.40
3923;DHT22;1976;51.694;6.256;2023-02-13T18:18:04;13.50;91.30
3923;DHT22;1976;51.694;6.256;2023-02-13T18:20:29;13.40;91.10
3923;DHT22;1976;51.694;6.256;2023-02-13T18:22:55;13.30;91.00
3923;DHT22;1976;51.694;6.256;2023-02-13T18:25:21;13.10;91.00
3923;DHT22;1976;51.694;6.256;2023-02-13T18:27:48;12.90;91.30
3923;DHT22;1976;51.694;6.256;2023-02-13T18:30:16;12.70;91.50
3923;DHT22;1976;51.694;6.256;2023-02-13T18:32:42;12.50;91.70
3923;DHT22;1976;51.694;6.256;2023-02-13T18:35:08;12.40;91.90
3923;DHT22;1976;51.694;6.256;2023-02-13T18:37:34;12.20;92.40
3923;DHT22;1976;51.694;6.256;2023-02-13T18:40:00;12.00;92.90
3923;DHT22;1976;51.694;6.256;2023-02-13T18:42:26;11.90;93.90
3923;DHT22;1976;51.694;6.256;2023-02-13T18:44:52;11.70;94.80
3923;DHT22;1976;51.694;6.256;2023-02-13T18:47:18;11.60;95.10
3923;DHT22;1976;51.694;6.256;2023-02-13T18:49:43;11.40;95.90
3923;DHT22;1976;51.694;6.256;2023-02-13T18:52:12;11.30;96.30
3923;DHT22;1976;51.694;6.256;2023-02-13T18:54:38;11.30;96.90
3923;DHT22;1976;51.694;6.256;2023-02-13T18:57:04;11.30;97.60
3923;DHT22;1976;51.694;6.256;2023-02-13T18:59:30;11.20;98.60
3923;DHT22;1976;51.694;6.256;2023-02-13T19:01:55;11.10;98.60
3923;DHT22;1976;51.694;6.256;2023-02-13T19:04:21;11.10;99.20
3923;DHT22;1976;51.694;6.256;2023-02-13T19:06:47;11.10;99.70